Time;durP1;ratioP1;P1;durP2;ratioP2;P2;SDS_P1;SDS_P2;PMS_P1;PMS_P2;Temp;Humidity;BMP_temperature;BMP_pressure;BME280_temperature;BME280_humidity;BME280_pressure;Samples;Min_cycle;Max_cycle;Signal;HPM_P1;HPM_P2
2022/08/22 00:02:04;;;;;;;13.30;3.70;;;18.30;78.80;;;;;;5052683;28;20183;-89
2022/08/22 00:04:42;;;;;;;12.20;3.95;;;18.20;79.00;;;;;;5052592;28;20200;-89
2022/08/22 00:07:10;;;;;;;12.40;3.80;;;18.20;79.50;;;;;;5053677;28;20164;-90
2022/08/22 00:09:44;;;;;;;10.38;3.65;;;18.10;79.70;;;;;;5052411;28;20542;-90
2022/08/22 00:12:31;;;;;;;9.27;3.50;;;18.00;79.70;;;;;;5054132;28;20182;-89
2022/08/22 00:15:12;;;;;;;9.02;3.15;;;18.00;79.70;;;;;;5052844;28;20618;-90
2022/08/22 00:17:45;;;;;;;8.88;3.13;;;17.90;79.70;;;;;;5054077;28;20172;-90
2022/08/22 00:20:25;;;;;;;12.32;3.50;;;17.90;79.70;;;;;;5052874;28;20650;-90
2022/08/22 00:23:01;;;;;;;11.23;3.55;;;17.80;79.60;;;;;;5054070;28;20273;-90
2022/08/22 00:25:41;;;;;;;10.35;3.53;;;17.80;79.70;;;;;;5053930;28;20589;-90
2022/08/22 00:28:20;;;;;;;6.95;3.00;;;17.70;80.00;;;;;;5054112;28;20196;-91
2022/08/22 00:31:01;;;;;;;9.27;2.80;;;17.60;79.90;;;;;;5054331;28;20160;-90
2022/08/22 00:33:27;;;;;;;11.27;3.55;;;17.60;80.00;;;;;;5053330;28;20571;-90
2022/08/22 00:36:06;;;;;;;8.63;2.75;;;17.60;79.90;;;;;;5053755;28;20164;-90
2022/08/22 00:38:39;;;;;;;10.45;3.15;;;17.60;79.70;;;;;;5053873;28;20261;-91
2022/08/22 00:41:30;;;;;;;10.48;2.85;;;17.50;79.70;;;;;;5056090;28;20171;-90
2022/08/22 00:44:34;;;;;;;14.10;4.22;;;17.50;79.80;;;;;;5056139;28;20196;-90
2022/08/22 00:47:34;;;;;;;13.75;4.35;;;17.40;81.10;;;;;;5057506;28;20172;-90
2022/08/22 00:50:37;;;;;;;9.43;3.63;;;17.20;82.10;;;;;;5055520;28;20179;-90
2022/08/22 00:53:14;;;;;;;8.90;3.97;;;17.20;82.10;;;;;;5056046;28;20673;-90
2022/08/22 00:56:06;;;;;;;7.10;3.72;;;17.20;82.10;;;;;;5055809;28;20164;-91
2022/08/22 00:58:53;;;;;;;11.55;4.13;;;17.30;81.90;;;;;;5057585;28;20149;-90
2022/08/22 01:01:27;;;;;;;8.73;3.50;;;17.30;81.70;;;;;;5056588;28;20176;-89
2022/08/22 01:04:09;;;;;;;13.75;4.65;;;17.40;81.60;;;;;;5056651;28;20234;-90
2022/08/22 01:07:09;;;;;;;13.23;4.10;;;17.40;81.60;;;;;;5057103;28;20152;-90
2022/08/22 01:10:00;;;;;;;11.65;3.90;;;17.50;81.60;;;;;;5057167;28;20529;-90
2022/08/22 01:12:48;;;;;;;9.18;3.92;;;17.50;81.70;;;;;;5056210;28;20217;-90
2022/08/22 01:15:24;;;;;;;14.57;4.57;;;17.50;81.60;;;;;;5056958;28;20247;-90
2022/08/22 01:18:32;;;;;;;9.30;3.53;;;17.50;81.60;;;;;;5056744;28;20225;-90
2022/08/22 01:21:32;;;;;;;8.93;3.83;;;17.60;81.50;;;;;;5055789;28;20172;-90
2022/08/22 01:24:24;;;;;;;10.35;4.55;;;17.60;81.60;;;;;;5056576;28;20204;-90
2022/08/22 01:27:30;;;;;;;8.27;3.75;;;17.60;81.70;;;;;;5056387;28;20243;-90
2022/08/22 01:30:07;;;;;;;5.88;3.20;;;17.60;81.70;;;;;;5055093;28;20187;-90
2022/08/22 01:33:14;;;;;;;9.73;3.42;;;17.60;81.70;;;;;;5055135;28;20202;-90
2022/08/22 01:36:00;;;;;;;11.45;4.10;;;17.60;81.60;;;;;;5053887;28;20266;-90
2022/08/22 01:38:50;;;;;;;9.85;3.88;;;17.60;81.70;;;;;;5037714;28;20251;-90
2022/08/22 01:41:42;;;;;;;9.70;3.95;;;17.60;81.60;;;;;;5050453;28;20184;-90
2022/08/22 01:44:11;;;;;;;11.38;3.60;;;17.60;81.60;;;;;;5055096;28;20192;-90
2022/08/22 01:46:39;;;;;;;13.82;3.80;;;17.60;81.50;;;;;;5054901;28;20176;-90
2022/08/22 01:49:20;;;;;;;8.13;3.95;;;17.60;81.50;;;;;;5054556;28;20698;-90
2022/08/22 01:52:34;;;;;;;10.25;3.97;;;17.60;81.60;;;;;;5055413;28;20160;-90
2022/08/22 01:55:07;;;;;;;9.27;3.72;;;17.60;81.70;;;;;;5055509;28;20184;-90
2022/08/22 01:57:52;;;;;;;16.67;4.47;;;17.60;81.70;;;;;;5054743;28;20190;-90
2022/08/22 02:00:20;;;;;;;11.70;4.00;;;17.60;81.70;;;;;;5056128;28;20218;-90
2022/08/22 02:03:19;;;;;;;10.63;4.22;;;17.60;81.80;;;;;;5054720;28;20257;-90
2022/08/22 02:06:05;;;;;;;12.10;4.53;;;17.60;82.00;;;;;;5054405;28;20176;-90
2022/08/22 02:08:52;;;;;;;18.38;5.03;;;17.60;82.00;;;;;;5054202;28;20279;-91
2022/08/22 02:11:59;;;;;;;14.15;5.40;;;17.60;82.50;;;;;;5055393;28;20232;-90
2022/08/22 02:14:34;;;;;;;14.20;5.25;;;17.50;83.30;;;;;;5054326;28;20269;-91
2022/08/22 02:17:13;;;;;;;15.90;5.20;;;17.30;83.90;;;;;;5055194;28;20171;-90
2022/08/22 02:19:53;;;;;;;13.25;4.88;;;17.20;84.30;;;;;;5055284;28;20157;-90
2022/08/22 02:22:37;;;;;;;14.02;5.20;;;17.20;84.60;;;;;;5055113;28;20156;-90
2022/08/22 02:25:24;;;;;;;16.17;5.60;;;17.10;84.80;;;;;;5055120;28;20293;-91
2022/08/22 02:28:11;;;;;;;12.15;5.00;;;17.10;85.10;;;;;;5055085;28;20223;-90
2022/08/22 02:30:50;;;;;;;10.00;4.82;;;17.10;85.20;;;;;;5055633;28;20239;-90
2022/08/22 02:33:31;;;;;;;13.38;4.55;;;17.20;85.20;;;;;;5053895;28;20191;-90
2022/08/22 02:36:20;;;;;;;11.43;4.57;;;17.20;85.10;;;;;;5053746;28;20168;-90
2022/08/22 02:38:58;;;;;;;15.30;5.50;;;17.30;85.10;;;;;;5055370;28;20152;-90
2022/08/22 02:41:42;;;;;;;16.55;5.78;;;17.30;84.90;;;;;;5053662;28;20230;-90
2022/08/22 02:44:36;;;;;;;13.30;5.07;;;17.30;84.80;;;;;;5054957;28;20199;-90
2022/08/22 02:47:15;;;;;;;15.00;4.88;;;17.30;84.90;;;;;;5054697;28;20187;-90
2022/08/22 02:50:16;;;;;;;15.57;4.82;;;17.30;84.90;;;;;;5053642;28;20175;-90
2022/08/22 02:53:08;;;;;;;11.50;5.10;;;17.30;84.80;;;;;;5054729;28;20214;-90
2022/08/22 02:55:38;;;;;;;10.07;4.30;;;17.30;84.90;;;;;;5055203;28;20164;-90
2022/08/22 02:58:43;;;;;;;11.93;4.97;;;17.30;85.00;;;;;;5054637;28;20654;-90
2022/08/22 03:01:32;;;;;;;11.65;4.90;;;17.20;85.30;;;;;;5054899;28;20179;-90
2022/08/22 03:04:24;;;;;;;12.00;5.05;;;17.10;85.70;;;;;;5054663;28;20192;-90
2022/08/22 03:07:16;;;;;;;17.23;5.65;;;17.00;86.10;;;;;;5051897;28;20188;-90
2022/08/22 03:10:06;;;;;;;19.20;5.70;;;16.90;86.30;;;;;;5054515;28;20176;-90
2022/08/22 03:12:46;;;;;;;17.15;5.72;;;16.80;86.50;;;;;;5054446;28;20192;-90
2022/08/22 03:15:36;;;;;;;17.15;6.13;;;16.80;86.60;;;;;;5054379;28;20160;-91
2022/08/22 03:18:11;;;;;;;13.70;5.45;;;16.80;86.80;;;;;;5054350;28;20175;-90
2022/08/22 03:20:58;;;;;;;14.65;6.07;;;16.80;86.90;;;;;;5054478;28;20246;-90
2022/08/22 03:23:47;;;;;;;12.38;5.10;;;16.90;86.90;;;;;;5054356;28;20215;-90
2022/08/22 03:26:21;;;;;;;19.10;6.63;;;17.00;86.90;;;;;;5054276;28;20172;-90
2022/08/22 03:29:06;;;;;;;21.17;7.95;;;17.10;86.80;;;;;;5054447;28;20180;-90
2022/08/22 03:31:32;;;;;;;15.20;5.75;;;17.10;86.50;;;;;;5054362;28;20171;-90
2022/08/22 03:34:22;;;;;;;13.23;5.57;;;17.10;86.40;;;;;;5053878;28;20188;-90
2022/08/22 03:37:22;;;;;;;15.05;5.95;;;17.10;86.10;;;;;;5054255;28;20522;-90
2022/08/22 03:39:54;;;;;;;13.95;5.00;;;17.10;86.20;;;;;;5052845;28;20176;-90
2022/08/22 03:42:54;;;;;;;14.40;5.95;;;17.10;86.30;;;;;;5052778;28;20230;-90
2022/08/22 03:45:38;;;;;;;13.35;5.65;;;17.20;86.20;;;;;;5052681;28;20160;-90
2022/08/22 03:48:22;;;;;;;12.93;5.78;;;17.20;86.20;;;;;;5052901;28;20192;-91
2022/08/22 03:51:35;;;;;;;16.25;5.22;;;17.20;86.10;;;;;;5052617;28;20171;-90
2022/08/22 03:54:33;;;;;;;14.45;5.55;;;17.20;86.00;;;;;;5052524;28;20196;-90
2022/08/22 03:57:23;;;;;;;17.63;7.10;;;17.20;85.90;;;;;;5053954;28;20172;-90
2022/08/22 04:00:20;;;;;;;12.27;5.72;;;17.10;85.70;;;;;;5053923;28;20176;-90
2022/08/22 04:03:03;;;;;;;18.55;5.93;;;17.00;85.70;;;;;;5053389;28;20207;-90
2022/08/22 04:05:47;;;;;;;16.52;5.03;;;17.00;85.70;;;;;;5052547;28;20187;-90
2022/08/22 04:08:48;;;;;;;11.25;5.05;;;17.00;85.60;;;;;;5052649;28;20205;-90
2022/08/22 04:11:57;;;;;;;15.70;5.28;;;16.90;85.40;;;;;;5049727;28;20234;-90
2022/08/22 04:14:48;;;;;;;11.07;5.40;;;17.00;85.30;;;;;;5053774;28;20188;-91
2022/08/22 04:17:28;;;;;;;10.75;4.93;;;16.90;85.10;;;;;;5058236;28;20676;-90
2022/08/22 04:20:15;;;;;;;14.88;5.43;;;16.90;85.00;;;;;;5057761;28;20163;-91
2022/08/22 04:23:06;;;;;;;14.40;6.22;;;16.90;84.90;;;;;;5056330;28;20683;-90
2022/08/22 04:25:40;;;;;;;15.43;7.20;;;17.00;84.80;;;;;;5057765;28;20202;-90
2022/08/22 04:28:22;;;;;;;17.08;6.05;;;17.00;84.90;;;;;;5056146;28;20199;-90
2022/08/22 04:31:21;;;;;;;13.18;5.78;;;16.90;85.20;;;;;;5056162;28;20198;-90
2022/08/22 04:33:57;;;;;;;15.40;6.20;;;16.80;85.50;;;;;;5057004;28;20204;-90
2022/08/22 04:36:44;;;;;;;11.70;5.90;;;16.80;85.70;;;;;;5057370;28;20639;-90
2022/08/22 04:39:26;;;;;;;12.98;6.35;;;16.70;85.90;;;;;;5056089;28;20267;-90
2022/08/22 04:41:58;;;;;;;14.57;6.38;;;16.60;86.10;;;;;;5057140;28;20548;-90
2022/08/22 04:44:43;;;;;;;20.65;6.82;;;16.60;86.40;;;;;;5057254;28;20585;-90
2022/08/22 04:47:30;;;;;;;17.58;6.97;;;16.60;86.50;;;;;;5056981;28;20588;-90
2022/08/22 04:50:01;;;;;;;13.70;6.15;;;16.50;86.60;;;;;;5057115;28;20152;-90
2022/08/22 04:52:41;;;;;;;17.88;6.25;;;16.60;86.90;;;;;;5055625;28;20191;-90
2022/08/22 04:55:32;;;;;;;17.90;6.70;;;16.50;86.90;;;;;;5057141;28;20163;-90
2022/08/22 04:58:17;;;;;;;10.05;5.55;;;16.50;86.90;;;;;;5057265;28;20626;-90
2022/08/22 05:01:17;;;;;;;14.57;6.35;;;16.60;86.90;;;;;;5057179;28;20638;-90
2022/08/22 05:03:56;;;;;;;16.60;6.35;;;16.60;86.90;;;;;;5055489;28;20626;-90
2022/08/22 05:06:27;;;;;;;21.75;7.10;;;16.60;87.00;;;;;;5055641;28;20160;-90
2022/08/22 05:08:58;;;;;;;22.95;7.15;;;16.50;87.10;;;;;;5057197;28;20195;-90
2022/08/22 05:11:24;;;;;;;21.85;6.88;;;16.50;87.20;;;;;;5056750;28;20206;-90
2022/08/22 05:14:07;;;;;;;17.02;6.72;;;16.40;87.30;;;;;;5056525;28;20200;-90
2022/08/22 05:16:38;;;;;;;20.35;7.78;;;16.30;87.50;;;;;;5056677;28;20172;-90
2022/08/22 05:19:18;;;;;;;16.67;7.28;;;16.30;87.70;;;;;;5056937;28;20598;-87
2022/08/22 05:21:47;;;;;;;18.15;6.93;;;16.40;87.80;;;;;;5055017;28;20370;-90
2022/08/22 05:24:21;;;;;;;18.40;7.22;;;16.50;87.90;;;;;;5055752;28;20208;-90
2022/08/22 05:26:52;;;;;;;25.13;9.60;;;16.50;87.80;;;;;;5053629;28;20175;-90
2022/08/22 05:29:25;;;;;;;15.90;7.47;;;16.60;87.80;;;;;;5056180;28;20187;-90
2022/08/22 05:32:04;;;;;;;19.52;7.65;;;16.70;87.70;;;;;;5056541;28;20160;-90
2022/08/22 05:34:36;;;;;;;17.70;6.88;;;16.70;87.70;;;;;;5056262;28;20202;-90
2022/08/22 05:37:17;;;;;;;25.73;7.38;;;16.80;87.70;;;;;;5056211;28;20192;-90
2022/08/22 05:39:47;;;;;;;18.70;7.15;;;16.80;87.60;;;;;;5054871;28;20160;-89
2022/08/22 05:42:21;;;;;;;19.10;6.43;;;16.90;87.60;;;;;;5055394;28;20650;-90
2022/08/22 05:44:46;;;;;;;18.17;7.28;;;16.80;87.50;;;;;;5055054;28;20172;-90
2022/08/22 05:47:31;;;;;;;17.60;6.65;;;17.00;87.40;;;;;;5056844;28;20168;-91
2022/08/22 05:50:18;;;;;;;23.23;6.72;;;17.00;87.20;;;;;;5056701;28;20571;-91
2022/08/22 05:52:53;;;;;;;18.83;6.53;;;17.00;86.90;;;;;;5055555;28;20210;-91
2022/08/22 05:55:48;;;;;;;17.00;5.80;;;17.00;86.70;;;;;;5055094;28;20649;-91
2022/08/22 05:58:24;;;;;;;14.50;6.45;;;16.90;86.70;;;;;;5056708;28;20627;-91
2022/08/22 06:00:57;;;;;;;16.00;6.28;;;16.90;86.60;;;;;;5057424;28;20160;-91
2022/08/22 06:03:49;;;;;;;18.17;6.28;;;16.80;86.60;;;;;;5056788;28;20232;-90
2022/08/22 06:06:17;;;;;;;16.05;6.00;;;16.80;86.80;;;;;;5055189;28;20240;-91
2022/08/22 06:09:13;;;;;;;15.93;6.55;;;16.80;86.90;;;;;;5056757;28;20235;-91
2022/08/22 06:11:47;;;;;;;18.40;6.03;;;16.80;87.10;;;;;;5056721;28;20175;-90
2022/08/22 06:14:18;;;;;;;16.35;6.20;;;16.90;87.20;;;;;;5055980;28;20286;-91
2022/08/22 06:17:16;;;;;;;14.32;5.65;;;17.00;87.30;;;;;;5056123;28;20173;-91
2022/08/22 06:19:47;;;;;;;17.75;5.97;;;17.00;87.30;;;;;;5054899;28;20168;-90
2022/08/22 06:22:28;;;;;;;10.10;6.00;;;17.20;87.20;;;;;;5056939;28;20529;-90
2022/08/22 06:24:59;;;;;;;16.30;6.60;;;17.20;86.80;;;;;;5054781;28;20560;-90
2022/08/22 06:27:26;;;;;;;17.15;6.05;;;17.30;86.80;;;;;;5056787;28;20203;-90
2022/08/22 06:29:57;;;;;;;9.93;5.60;;;17.40;86.60;;;;;;5054494;28;20204;-90
2022/08/22 06:32:34;;;;;;;14.95;5.47;;;17.50;86.50;;;;;;5055640;28;20584;-90
2022/08/22 06:35:05;;;;;;;11.95;4.95;;;17.60;86.30;;;;;;5054905;28;20159;-90
2022/08/22 06:37:44;;;;;;;15.40;4.50;;;17.80;85.90;;;;;;5053167;28;20172;-92
2022/08/22 06:40:13;;;;;;;12.57;5.38;;;18.00;85.00;;;;;;5053902;28;20176;-90
2022/08/22 06:42:43;;;;;;;13.55;4.07;;;18.10;84.20;;;;;;5052936;28;20262;-91
2022/08/22 06:45:25;;;;;;;12.93;3.63;;;18.20;84.10;;;;;;5053568;28;20183;-90
2022/08/22 06:47:54;;;;;;;12.10;3.47;;;18.20;82.90;;;;;;5052743;28;20199;-88
2022/08/22 06:50:29;;;;;;;10.90;4.13;;;18.40;82.60;;;;;;5052884;28;20176;-89
2022/08/22 06:53:15;;;;;;;9.00;3.35;;;18.30;81.70;;;;;;5054506;28;20275;-89
2022/08/22 06:55:49;;;;;;;12.80;3.58;;;18.40;81.20;;;;;;5053881;28;20725;-90
2022/08/22 06:58:20;;;;;;;10.00;2.95;;;18.40;80.60;;;;;;5052633;28;20171;-90
2022/08/22 07:00:50;;;;;;;7.15;2.97;;;18.40;80.80;;;;;;5052670;28;20172;-90
2022/08/22 07:03:24;;;;;;;13.63;3.30;;;18.30;80.80;;;;;;5053204;28;20203;-89
2022/08/22 07:05:54;;;;;;;14.25;4.05;;;18.40;81.30;;;;;;5052374;28;20704;-90
2022/08/22 07:08:21;;;;;;;7.50;2.88;;;18.50;81.50;;;;;;5052194;28;20211;-90
2022/08/22 07:11:13;;;;;;;8.43;3.00;;;18.70;80.70;;;;;;5052371;28;20627;-89
2022/08/22 07:13:49;;;;;;;6.60;2.70;;;18.70;79.60;;;;;;5052237;28;20753;-88
2022/08/22 07:16:14;;;;;;;9.52;2.67;;;18.80;79.10;;;;;;5052443;28;20642;-91
2022/08/22 07:18:49;;;;;;;14.93;3.38;;;18.90;79.10;;;;;;5052173;28;20183;-90
2022/08/22 07:21:46;;;;;;;9.65;2.25;;;19.00;78.30;;;;;;5052204;28;20179;-90
2022/08/22 07:24:28;;;;;;;15.93;2.75;;;19.00;77.20;;;;;;5047954;28;20589;-91
2022/08/22 07:27:36;;;;;;;10.82;3.17;;;19.10;76.70;;;;;;5053016;28;20172;-91
2022/08/22 07:30:12;;;;;;;11.52;3.35;;;19.20;76.60;;;;;;5052084;28;20184;-91
2022/08/22 07:32:47;;;;;;;7.38;2.60;;;19.40;77.00;;;;;;5052060;28;20208;-91
2022/08/22 07:35:22;;;;;;;6.30;2.22;;;19.50;76.20;;;;;;5052328;28;20204;-91
2022/08/22 07:38:13;;;;;;;6.05;2.33;;;19.50;75.20;;;;;;5052046;28;20168;-90
2022/08/22 07:40:57;;;;;;;8.05;2.25;;;19.70;74.80;;;;;;5052086;28;20168;-91
2022/08/22 07:43:45;;;;;;;10.18;2.47;;;19.80;74.30;;;;;;5052489;28;20199;-91
2022/08/22 07:46:18;;;;;;;7.50;2.40;;;19.90;74.20;;;;;;5051900;28;20168;-91
2022/08/22 07:48:59;;;;;;;8.30;2.35;;;20.00;74.10;;;;;;5051898;28;20196;-91
2022/08/22 07:51:41;;;;;;;8.35;2.55;;;20.00;74.30;;;;;;5055354;28;20174;-91
2022/08/22 07:54:11;;;;;;;12.23;2.83;;;20.00;74.30;;;;;;5056062;28;20200;-90
2022/08/22 07:56:52;;;;;;;7.82;2.33;;;20.10;74.50;;;;;;5056278;28;20172;-91
2022/08/22 07:59:20;;;;;;;11.60;3.08;;;20.20;75.00;;;;;;5055918;28;20743;-90
2022/08/22 08:01:50;;;;;;;10.57;2.78;;;20.20;75.00;;;;;;5055968;28;20304;-91
2022/08/22 08:04:25;;;;;;;13.05;2.78;;;20.30;75.30;;;;;;5055752;28;20196;-91
2022/08/22 08:06:54;;;;;;;12.48;2.50;;;20.30;74.50;;;;;;5056933;28;20258;-90
2022/08/22 08:09:20;;;;;;;11.48;2.95;;;20.30;74.40;;;;;;5055757;28;20238;-90
2022/08/22 08:11:50;;;;;;;9.55;2.75;;;20.30;75.10;;;;;;5055797;28;20266;-91
2022/08/22 08:14:16;;;;;;;9.63;2.85;;;20.30;74.80;;;;;;5055574;28;20192;-91
2022/08/22 08:16:55;;;;;;;5.35;2.65;;;20.30;75.30;;;;;;5055652;28;20657;-90
2022/08/22 08:19:21;;;;;;;11.35;2.70;;;20.30;74.70;;;;;;5055516;28;20645;-90
2022/08/22 08:21:52;;;;;;;7.30;2.55;;;20.20;74.60;;;;;;5056630;28;20183;-91
2022/08/22 08:24:27;;;;;;;12.02;2.72;;;20.30;75.10;;;;;;5055275;28;20310;-88
2022/08/22 08:29:53;;;;;;;7.32;2.80;;;20.50;74.90;;;;;;5056871;28;20195;-90
2022/08/22 08:32:22;;;;;;;8.38;2.58;;;20.60;74.60;;;;;;5055470;28;20172;-91
2022/08/22 08:34:49;;;;;;;11.77;2.35;;;20.70;74.70;;;;;;5055491;28;20207;-90
2022/08/22 08:37:23;;;;;;;12.57;2.55;;;20.90;74.70;;;;;;5055657;28;20263;-89
2022/08/22 08:39:53;;;;;;;5.68;2.08;;;20.90;73.20;;;;;;5055335;28;20175;-88
2022/08/22 08:45:40;;;;;;;9.32;3.13;;;21.30;73.50;;;;;;5056768;28;20210;-88
2022/08/22 08:48:43;;;;;;;9.40;2.20;;;21.50;72.10;;;;;;5055017;28;20234;-89
2022/08/22 08:51:30;;;;;;;11.02;2.65;;;21.50;71.70;;;;;;5054967;28;20203;-87
2022/08/22 08:54:15;;;;;;;11.57;2.88;;;21.50;71.50;;;;;;5056665;28;20194;-91
2022/08/22 08:57:07;;;;;;;8.25;3.42;;;21.60;71.30;;;;;;5055036;28;20172;-91
2022/08/22 08:59:59;;;;;;;8.68;2.53;;;21.60;71.10;;;;;;5055297;28;20176;-91
2022/08/22 09:02:37;;;;;;;10.82;2.35;;;21.70;71.60;;;;;;5055089;28;20168;-90
2022/08/22 09:05:20;;;;;;;7.20;2.47;;;21.80;70.10;;;;;;5055298;28;20175;-90
2022/08/22 09:08:15;;;;;;;9.27;3.00;;;21.90;70.40;;;;;;5054612;28;20180;-89
2022/08/22 09:11:38;;;;;;;7.03;2.17;;;22.00;70.50;;;;;;5055851;28;20149;-86
2022/08/22 09:14:20;;;;;;;10.15;2.65;;;22.20;69.70;;;;;;5053572;28;20677;-86
2022/08/22 09:17:23;;;;;;;5.78;2.53;;;22.30;68.90;;;;;;5037116;28;20172;-91
2022/08/22 09:19:51;;;;;;;15.95;3.15;;;22.30;68.70;;;;;;5048427;28;20184;-88
2022/08/22 09:22:48;;;;;;;11.38;2.75;;;22.40;68.50;;;;;;5054370;28;20187;-90
2022/08/22 09:25:32;;;;;;;8.57;2.40;;;22.50;69.20;;;;;;5054415;28;20165;-89
2022/08/22 09:28:21;;;;;;;10.70;2.58;;;22.60;66.00;;;;;;5054248;28;20184;-89
2022/08/22 09:31:16;;;;;;;10.48;3.25;;;22.70;66.80;;;;;;5055620;28;20180;-89
2022/08/22 09:33:45;;;;;;;16.23;2.83;;;22.90;65.60;;;;;;5054105;28;20220;-89
2022/08/22 09:36:24;;;;;;;11.07;2.85;;;23.00;65.00;;;;;;5054119;28;20764;-89
2022/08/22 09:39:13;;;;;;;12.02;2.58;;;23.10;64.10;;;;;;5054453;28;20552;-89
2022/08/22 09:42:05;;;;;;;9.38;2.67;;;23.10;63.80;;;;;;5053998;28;20630;-89
2022/08/22 09:44:59;;;;;;;10.90;3.00;;;23.20;64.20;;;;;;5054106;28;20227;-90
2022/08/22 09:47:44;;;;;;;10.15;2.60;;;23.30;64.70;;;;;;5053857;28;20171;-90
2022/08/22 09:50:23;;;;;;;25.17;3.42;;;23.50;64.30;;;;;;5054046;28;20638;-89
2022/08/22 09:53:09;;;;;;;7.78;2.17;;;23.70;64.10;;;;;;5054886;28;20195;-90
2022/08/22 09:56:16;;;;;;;9.05;2.63;;;23.90;62.40;;;;;;5053837;28;20237;-87
2022/08/22 09:58:58;;;;;;;10.85;2.67;;;23.80;62.90;;;;;;5045872;28;20198;-90
2022/08/22 10:02:00;;;;;;;10.40;3.00;;;23.50;62.20;;;;;;5053563;28;20168;-90
2022/08/22 10:05:00;;;;;;;14.85;3.30;;;23.40;62.60;;;;;;5053542;28;20195;-90
2022/08/22 10:07:46;;;;;;;18.20;5.57;;;23.40;63.30;;;;;;5054898;28;20164;-90
2022/08/22 10:10:23;;;;;;;6.85;2.72;;;23.40;63.90;;;;;;5053701;28;20184;-90
2022/08/22 10:13:22;;;;;;;10.68;2.55;;;23.50;64.10;;;;;;5055296;28;20183;-91
2022/08/22 10:16:13;;;;;;;7.57;2.78;;;23.60;63.30;;;;;;5055992;28;20184;-90
2022/08/22 10:18:55;;;;;;;13.63;2.67;;;23.70;62.10;;;;;;5053538;28;20211;-90
2022/08/22 10:21:29;;;;;;;9.05;2.65;;;23.60;61.20;;;;;;5055402;28;20164;-90
2022/08/22 10:24:17;;;;;;;9.95;2.10;;;23.60;63.20;;;;;;5054482;28;20206;-90
2022/08/22 10:26:50;;;;;;;7.60;2.30;;;23.70;62.70;;;;;;5053722;28;20160;-90
2022/08/22 10:29:30;;;;;;;9.05;2.80;;;23.70;62.00;;;;;;5053214;28;20188;-88
2022/08/22 10:32:24;;;;;;;7.30;2.33;;;23.70;62.10;;;;;;5054018;28;20157;-87
2022/08/22 10:34:54;;;;;;;14.45;2.83;;;23.80;61.80;;;;;;5054141;28;20145;-87
2022/08/22 10:37:35;;;;;;;18.65;2.80;;;23.70;62.00;;;;;;5053787;28;20537;-87
2022/08/22 10:40:27;;;;;;;8.65;2.40;;;23.70;61.70;;;;;;5052921;28;20210;-87
2022/08/22 10:43:00;;;;;;;7.20;2.50;;;23.70;63.20;;;;;;5054140;28;20188;-88
2022/08/22 10:45:33;;;;;;;9.32;2.83;;;23.90;63.80;;;;;;5054532;28;20269;-87
2022/08/22 10:48:05;;;;;;;7.55;2.30;;;24.10;60.90;;;;;;5053012;28;20609;-87
2022/08/22 10:50:45;;;;;;;8.65;2.38;;;24.20;59.60;;;;;;5052947;28;20191;-87
2022/08/22 10:53:38;;;;;;;16.05;3.17;;;24.50;60.30;;;;;;5052589;28;20242;-88
2022/08/22 10:56:18;;;;;;;4.95;2.28;;;24.60;58.90;;;;;;5045361;28;20207;-88
2022/08/22 10:58:57;;;;;;;11.73;2.70;;;24.80;56.70;;;;;;5053432;28;20251;-87
2022/08/22 11:01:26;;;;;;;5.53;1.95;;;25.00;56.50;;;;;;5053720;28;20179;-87
2022/08/22 11:04:04;;;;;;;10.80;2.42;;;25.10;55.70;;;;;;5052458;28;20196;-87
2022/08/22 11:06:34;;;;;;;10.10;3.28;;;25.30;56.90;;;;;;5053793;28;20187;-87
2022/08/22 11:09:27;;;;;;;9.27;3.20;;;25.30;57.10;;;;;;5053797;28;20682;-87
2022/08/22 11:12:11;;;;;;;8.95;2.50;;;25.40;57.30;;;;;;5054497;28;20587;-89
2022/08/22 11:15:08;;;;;;;12.43;2.78;;;25.70;56.50;;;;;;5056449;28;20226;-88
2022/08/22 11:18:03;;;;;;;7.38;2.55;;;25.80;55.60;;;;;;5056238;28;20210;-88
2022/08/22 11:20:57;;;;;;;13.60;2.67;;;26.00;55.00;;;;;;5055412;28;20184;-88
2022/08/22 11:23:47;;;;;;;8.00;2.70;;;25.80;54.60;;;;;;5058787;28;20733;-88
2022/08/22 11:26:28;;;;;;;9.95;2.70;;;26.00;54.90;;;;;;5056010;28;20157;-88
2022/08/22 11:29:11;;;;;;;8.23;2.28;;;26.10;52.40;;;;;;5053962;28;20188;-89
2022/08/22 11:32:04;;;;;;;9.15;2.72;;;25.80;52.80;;;;;;5055766;28;20654;-88
2022/08/22 11:35:04;;;;;;;9.45;2.70;;;25.50;53.50;;;;;;5054961;28;20202;-88
2022/08/22 11:37:43;;;;;;;13.05;3.03;;;25.10;54.20;;;;;;5058846;28;20687;-88
2022/08/22 11:40:15;;;;;;;10.75;3.00;;;25.00;54.80;;;;;;5056874;28;20178;-88
2022/08/22 11:42:48;;;;;;;8.30;2.00;;;25.30;55.10;;;;;;5055093;28;20206;-88
2022/08/22 11:45:20;;;;;;;9.15;2.72;;;25.40;55.10;;;;;;5054466;28;20164;-88
2022/08/22 11:47:56;;;;;;;10.60;2.53;;;25.10;54.90;;;;;;5057635;28;20660;-88
2022/08/22 11:50:36;;;;;;;6.20;2.58;;;25.30;54.90;;;;;;5058032;28;20162;-88
2022/08/22 11:53:49;;;;;;;10.80;2.80;;;25.60;54.80;;;;;;5057559;28;20213;-88
2022/08/22 11:56:30;;;;;;;9.23;2.33;;;25.70;53.60;;;;;;5041078;28;20646;-88
2022/08/22 11:59:20;;;;;;;11.10;2.60;;;25.90;53.00;;;;;;5054109;28;20221;-88
2022/08/22 12:01:49;;;;;;;14.68;2.80;;;25.80;52.60;;;;;;5054727;28;20164;-88
2022/08/22 12:04:38;;;;;;;12.13;2.88;;;25.90;54.10;;;;;;5054611;28;20242;-88
2022/08/22 12:07:28;;;;;;;10.05;2.35;;;26.10;53.10;;;;;;5055682;28;20155;-88
2022/08/22 12:10:08;;;;;;;6.53;2.30;;;26.20;53.30;;;;;;5053170;28;20188;-88
2022/08/22 12:12:54;;;;;;;9.93;3.38;;;26.20;52.20;;;;;;5053591;28;20168;-88
2022/08/22 12:15:35;;;;;;;7.53;2.60;;;26.20;52.50;;;;;;5054541;28;20172;-88
2022/08/22 12:18:26;;;;;;;9.80;2.47;;;26.50;52.10;;;;;;5052998;28;20164;-88
2022/08/22 12:21:11;;;;;;;11.32;2.72;;;26.50;52.10;;;;;;5052821;28;20187;-88
2022/08/22 12:23:51;;;;;;;6.72;2.55;;;26.20;51.40;;;;;;5053924;28;20250;-88
2022/08/22 12:26:50;;;;;;;9.18;2.50;;;25.80;52.00;;;;;;5053440;28;20661;-88
2022/08/22 12:29:47;;;;;;;12.43;2.65;;;25.80;51.30;;;;;;5054951;28;20528;-89
2022/08/22 12:32:32;;;;;;;7.53;2.83;;;25.80;51.60;;;;;;5052722;28;20547;-88
2022/08/22 12:35:15;;;;;;;6.35;2.25;;;25.80;53.80;;;;;;5051653;28;20157;-89
2022/08/22 12:38:04;;;;;;;9.68;2.92;;;25.60;55.10;;;;;;5055029;28;20211;-88
2022/08/22 12:40:55;;;;;;;9.95;2.45;;;25.60;54.40;;;;;;5055111;28;20164;-89
2022/08/22 12:43:24;;;;;;;7.72;3.03;;;25.50;54.70;;;;;;5054884;28;20199;-88
2022/08/22 12:46:16;;;;;;;9.35;2.67;;;25.30;56.00;;;;;;5055019;28;20179;-88
2022/08/22 12:49:01;;;;;;;7.32;2.33;;;25.20;57.30;;;;;;5055280;28;20188;-88
2022/08/22 12:51:33;;;;;;;9.07;2.90;;;25.20;56.50;;;;;;5054990;28;20180;-89
2022/08/22 12:54:37;;;;;;;12.75;2.63;;;25.30;56.00;;;;;;5054956;28;20591;-88
2022/08/22 12:57:24;;;;;;;5.75;2.13;;;25.30;57.00;;;;;;5037342;28;20176;-89
2022/08/22 12:59:55;;;;;;;9.25;2.33;;;25.20;57.30;;;;;;5054051;28;20165;-88
2022/08/22 13:02:30;;;;;;;7.78;2.30;;;25.10;57.60;;;;;;5047538;28;20188;-89
2022/08/22 13:05:09;;;;;;;7.72;2.17;;;24.90;56.50;;;;;;5056306;28;20171;-87
2022/08/22 13:07:37;;;;;;;9.60;2.45;;;24.90;58.20;;;;;;5056188;28;20199;-87
2022/08/22 13:10:22;;;;;;;8.65;2.75;;;24.80;56.90;;;;;;5055911;28;20289;-88
2022/08/22 13:12:52;;;;;;;8.50;2.83;;;24.90;56.70;;;;;;5054468;28;20192;-87
2022/08/22 13:15:52;;;;;;;7.90;2.40;;;25.00;56.30;;;;;;5054557;28;20156;-88
2022/08/22 13:18:24;;;;;;;8.35;2.53;;;25.20;58.40;;;;;;5054393;28;20258;-88
2022/08/22 13:20:52;;;;;;;9.93;3.15;;;25.20;54.70;;;;;;5054340;28;20168;-88
2022/08/22 13:23:30;;;;;;;9.02;2.72;;;25.30;56.60;;;;;;5054565;28;20222;-88
2022/08/22 13:26:04;;;;;;;8.13;2.40;;;25.50;54.20;;;;;;5054325;28;20164;-88
2022/08/22 13:28:54;;;;;;;14.52;2.90;;;25.70;55.50;;;;;;5054198;28;20196;-88
2022/08/22 13:31:29;;;;;;;7.47;2.45;;;25.80;54.60;;;;;;5055517;28;20206;-88
2022/08/22 13:34:02;;;;;;;6.80;2.30;;;25.70;53.20;;;;;;5054033;28;20195;-87
2022/08/22 13:36:30;;;;;;;8.70;2.97;;;25.50;54.00;;;;;;5055297;28;20195;-88
2022/08/22 13:39:12;;;;;;;7.35;2.67;;;25.40;55.50;;;;;;5054091;28;20180;-89
2022/08/22 13:41:55;;;;;;;8.55;2.13;;;25.40;54.40;;;;;;5055621;28;20222;-88
2022/08/22 13:44:26;;;;;;;9.32;2.17;;;25.30;52.70;;;;;;5055395;28;20222;-88
2022/08/22 13:46:54;;;;;;;7.80;2.33;;;25.20;53.80;;;;;;5053521;28;20168;-89
2022/08/22 13:49:33;;;;;;;6.50;2.13;;;25.20;54.40;;;;;;5053031;28;20230;-87
2022/08/22 13:52:13;;;;;;;5.30;1.90;;;25.20;53.70;;;;;;5055149;28;20152;-88
2022/08/22 13:54:52;;;;;;;9.82;3.30;;;25.30;53.40;;;;;;5053804;28;20234;-88
2022/08/22 13:57:36;;;;;;;7.53;2.75;;;25.60;52.70;;;;;;5053801;28;20167;-87
2022/08/22 14:00:17;;;;;;;8.60;2.10;;;25.70;50.90;;;;;;5054972;28;20156;-87
2022/08/22 14:03:02;;;;;;;7.88;2.55;;;26.00;51.00;;;;;;5055042;28;20200;-87
2022/08/22 14:05:28;;;;;;;13.07;2.53;;;26.20;52.20;;;;;;5053681;28;20251;-88